Weather reports worldwide

Advertisment
Isola Di Salina, Italy (16415): temperature & dewpoint: 09.08.2018 21:00:00 - 15.08.2018 21:00:00 (CEST)Isola Di Salina, Italy (16415): wind speed: 09.08.2018 21:00:00 - 15.08.2018 21:00:00 (CEST)Isola Di Salina, Italy (16415): wind direction: 09.08.2018 21:00:00 - 15.08.2018 21:00:00 (CEST)Isola Di Salina, Italy (16415): reduced air pressure: 09.08.2018 21:00:00 - 15.08.2018 21:00:00 (CEST)Isola Di Salina, Italy (16415): precipitation: 09.08.2018 21:00:00 - 15.08.2018 21:00:00 (CEST)
Date & Time tt [°C] td [°C] ff [km/h] ff [kn] dd ppp [hPa] rr [mm]
15.08.2018 21:00:00 - - - - - - -
15.08.2018 20:00:00 21,6 20,0 0 0 N 1012,3 -
15.08.2018 19:00:00 22,0 20,4 0 0 N 1012,2 -
15.08.2018 18:00:00 22,5 20,0 0 0 N 1012,7 -
15.08.2018 17:00:00 23,0 16,2 0 0 N 1012,5 -
15.08.2018 16:00:00 26,9 20,4 0 0 N 1012,0 -
15.08.2018 15:00:00 26,1 20,8 0 0 N 1011,7 -
15.08.2018 14:00:00 26,4 21,3 0 0 N 1012,6 0,0
15.08.2018 13:00:00 26,6 20,8 0 0 N 1012,4 -
15.08.2018 12:00:00 27,0 23,6 0 0 N 1012,3 -
15.08.2018 11:00:00 24,8 23,5 0 0 N 1012,3 -
15.08.2018 10:00:00 23,3 22,6 0 0 N 1012,4 -
15.08.2018 09:00:00 22,7 21,5 0 0 N 1012,3 -
15.08.2018 08:00:00 22,7 21,5 0 0 N 1013,0 -
15.08.2018 07:00:00 22,4 21,2 0 0 N 1012,4 -
15.08.2018 06:00:00 22,1 21,2 24 13 NNW 1012,3 -
15.08.2018 05:00:00 20,8 20,3 31 17 NNW 1011,4 -
15.08.2018 04:00:00 24,9 23,5 0 0 N 1011,2 -
15.08.2018 03:00:00 24,3 22,9 0 0 N 1011,3 -
15.08.2018 02:00:00 23,7 21,9 0 0 N 1011,1 -
15.08.2018 01:00:00 23,6 22,0 0 0 N 1012,3 -
15.08.2018 00:00:00 24,0 22,2 0 0 N 1012,4 -
14.08.2018 23:00:00 23,5 22,2 0 0 N 1012,6 -
14.08.2018 22:00:00 23,5 22,1 5 3 SW 1012,9 -
14.08.2018 21:00:00 24,1 22,8 0 0 N 1013,7 -
14.08.2018 20:00:00 24,3 23,2 0 0 N 1012,9 -
14.08.2018 19:00:00 26,2 24,6 24 13 NNW 1012,9 -
14.08.2018 18:00:00 27,5 24,7 15 8 NNW 1013,0 -
14.08.2018 17:00:00 28,6 23,2 8 4 N 1012,1 -
14.08.2018 16:00:00 28,7 25,7 11 6 NNW 1012,5 -
14.08.2018 15:00:00 28,4 26,2 13 7 NNW 1012,9 -
14.08.2018 14:00:00 28,1 25,5 0 0 N 1013,3 0,0
14.08.2018 13:00:00 28,8 25,4 0 0 N 1013,7 -
14.08.2018 12:00:00 29,0 25,1 0 0 N 1014,0 -
14.08.2018 11:00:00 29,1 25,0 0 0 N 1013,9 -
14.08.2018 10:00:00 28,5 25,5 0 0 N 1013,7 -
14.08.2018 09:00:00 27,5 25,5 0 0 N 1013,6 -
14.08.2018 08:00:00 26,0 24,9 0 0 N 1013,7 0,0
14.08.2018 07:00:00 24,1 22,5 0 0 N 1013,6 -
14.08.2018 06:00:00 24,1 22,5 0 0 N 1013,2 -
14.08.2018 05:00:00 24,6 22,2 0 0 N 1012,9 -
14.08.2018 04:00:00 24,6 22,6 0 0 N 1012,9 -
14.08.2018 03:00:00 24,7 23,1 0 0 N 1013,1 -
14.08.2018 02:00:00 25,2 23,4 0 0 N 1013,3 0,0
14.08.2018 01:00:00 25,3 23,5 0 0 N 1013,6 -
14.08.2018 00:00:00 25,2 22,2 0 0 N 1013,7 -
13.08.2018 23:00:00 25,4 22,2 0 0 N 1013,4 -
13.08.2018 22:00:00 25,3 23,5 0 0 N 1013,9 -
13.08.2018 21:00:00 25,6 23,8 2 1 NNW 1013,7 -
13.08.2018 20:00:00 26,5 23,9 0 0 N 1013,6 0,0
13.08.2018 19:00:00 27,4 23,8 0 0 N 1013,3 -
13.08.2018 18:00:00 28,3 24,3 2 1 N 1013,6 -
13.08.2018 17:00:00 28,3 26,5 0 0 N 1013,8 -
13.08.2018 16:00:00 28,3 26,5 0 0 N 1014,2 -
13.08.2018 15:00:00 28,7 26,3 0 0 N 1014,8 -
13.08.2018 14:00:00 27,9 26,1 4 2 ESE 1015,1 0,0
13.08.2018 13:00:00 28,4 26,6 5 3 ESE 1015,5 -
13.08.2018 12:00:00 28,1 26,3 9 5 E 1015,8 -
13.08.2018 11:00:00 28,6 26,8 0 0 N 1015,8 -
13.08.2018 10:00:00 28,2 26,8 0 0 N 1015,5 -
13.08.2018 09:00:00 27,3 26,4 0 0 N 1015,2 -
13.08.2018 08:00:00 25,7 25,3 0 0 N 1015,0 0,0
13.08.2018 07:00:00 23,9 23,5 0 0 N 1015,0 -
13.08.2018 06:00:00 24,0 23,6 0 0 N 1014,8 -
13.08.2018 05:00:00 24,1 23,5 0 0 N 1014,7 -
13.08.2018 04:00:00 24,0 23,3 0 0 N 1015,1 -
13.08.2018 03:00:00 24,1 23,2 0 0 N 1015,3 -
13.08.2018 02:00:00 24,3 23,2 0 0 N 1015,6 0,0
13.08.2018 01:00:00 25,0 24,1 2 1 SW 1016,3 -
13.08.2018 00:00:00 25,3 24,4 0 0 N 1016,7 -
12.08.2018 23:00:00 25,0 23,9 0 0 N 1016,5 -
12.08.2018 22:00:00 25,3 24,0 2 1 WNW 1016,3 -
12.08.2018 21:00:00 25,5 24,0 9 5 WNW 1015,7 -
12.08.2018 20:00:00 26,8 25,0 0 0 N 1016,2 0,0
12.08.2018 19:00:00 27,6 25,8 4 2 N 1016,7 -
12.08.2018 18:00:00 27,6 26,0 11 6 N 1016,2 -
12.08.2018 17:00:00 28,0 26,2 13 7 NNW 1016,5 -
12.08.2018 16:00:00 28,3 26,1 15 8 NNW 1017,0 -
12.08.2018 15:00:00 28,7 25,9 15 8 NNW 1017,4 -
12.08.2018 14:00:00 28,6 25,4 11 6 N 1017,8 0,0
12.08.2018 13:00:00 29,4 26,0 9 5 N 1018,2 -
12.08.2018 12:00:00 28,8 26,2 11 6 NNW 1018,1 -
12.08.2018 11:00:00 28,6 26,8 11 6 N 1018,0 -
12.08.2018 10:00:00 27,6 26,2 11 6 NNW 1017,7 -
12.08.2018 09:00:00 26,9 25,7 8 4 NNW 1017,4 -
12.08.2018 08:00:00 26,3 25,4 8 4 NW 1017,3 0,0
12.08.2018 07:00:00 25,1 24,4 4 2 WNW 1017,1 -
12.08.2018 06:00:00 25,1 24,4 8 4 WNW 1017,0 -
12.08.2018 05:00:00 25,1 24,2 4 2 WSW 1017,0 -
12.08.2018 04:00:00 24,9 23,8 0 0 N 1016,7 -
12.08.2018 03:00:00 24,8 23,4 0 0 N 1016,8 -
12.08.2018 02:00:00 24,9 23,5 0 0 N 1017,4 0,0
12.08.2018 01:00:00 25,0 23,6 0 0 N 1018,0 -
12.08.2018 00:00:00 25,6 24,3 5 3 SW 1018,5 -
11.08.2018 23:00:00 25,6 24,1 5 3 WSW 1018,5 -
11.08.2018 22:00:00 25,6 24,1 4 2 W 1018,1 -
11.08.2018 21:00:00 25,9 24,3 5 3 W 1017,3 -
11.08.2018 20:00:00 26,6 25,0 8 4 NW 1017,3 0,0
11.08.2018 19:00:00 27,3 25,5 8 4 NW 1017,5 -
11.08.2018 18:00:00 27,7 25,9 11 6 NNW 1018,1 -
11.08.2018 17:00:00 28,5 25,5 11 6 NW 1018,1 -
11.08.2018 16:00:00 28,9 25,5 15 8 NW 1018,0 -
11.08.2018 15:00:00 29,0 25,1 15 8 NW 1018,4 -
11.08.2018 14:00:00 29,0 25,4 13 7 NW 1018,8 0,0
11.08.2018 13:00:00 28,5 24,9 13 7 NW 1019,3 -
11.08.2018 12:00:00 28,6 25,0 15 8 NW 1019,3 -
11.08.2018 11:00:00 28,2 25,4 15 8 NW 1019,3 -
11.08.2018 10:00:00 28,5 25,1 5 3 NE 1019,2 -
11.08.2018 09:00:00 27,5 25,7 0 0 N 1019,3 -
11.08.2018 08:00:00 25,7 24,6 4 2 NW 1019,2 0,0
11.08.2018 07:00:00 23,9 22,8 5 3 W 1019,1 -
11.08.2018 06:00:00 23,9 23,0 5 3 W 1018,7 -
11.08.2018 05:00:00 24,1 23,2 5 3 W 1018,7 -
11.08.2018 04:00:00 24,4 23,5 5 3 WNW 1018,9 -
11.08.2018 03:00:00 24,4 23,3 5 3 W 1019,2 -
11.08.2018 02:00:00 24,6 23,3 5 3 W 1019,7 0,0
11.08.2018 01:00:00 24,8 23,5 5 3 W 1019,9 -
11.08.2018 00:00:00 25,0 23,7 5 3 W 1020,1 -
10.08.2018 23:00:00 25,5 24,0 5 3 W 1020,1 -
10.08.2018 22:00:00 26,0 24,5 2 1 NNW 1020,2 -
10.08.2018 21:00:00 26,2 24,7 5 3 N 1019,8 -
10.08.2018 20:00:00 26,6 25,1 8 4 NW 1019,2 0,0
10.08.2018 19:00:00 27,0 25,4 15 8 NNW 1019,0 -
10.08.2018 18:00:00 27,6 25,2 16 9 NNW 1019,2 -
10.08.2018 17:00:00 28,4 25,4 16 9 NNW 1019,2 -
10.08.2018 16:00:00 28,8 25,4 15 8 NNW 1019,3 -
10.08.2018 15:00:00 29,0 25,4 15 8 NNW 1019,7 -
10.08.2018 14:00:00 28,9 25,5 13 7 NNW 1019,8 0,0
10.08.2018 13:00:00 28,9 26,1 11 6 N 1019,8 -
10.08.2018 12:00:00 28,9 25,3 13 7 NNW 1019,8 -
10.08.2018 11:00:00 28,7 25,3 9 5 NW 1019,7 -
10.08.2018 10:00:00 28,2 26,4 8 4 NNW 1019,3 -
10.08.2018 09:00:00 27,6 26,2 2 1 WNW 1019,2 -
10.08.2018 08:00:00 25,8 24,9 5 3 WNW 1018,9 0,0
10.08.2018 07:00:00 24,4 23,5 5 3 W 1018,5 -
10.08.2018 06:00:00 24,4 23,5 5 3 W 1018,2 -
10.08.2018 05:00:00 24,5 23,6 5 3 W 1018,0 -
10.08.2018 04:00:00 24,5 23,4 8 4 W 1018,1 -
10.08.2018 03:00:00 24,6 23,7 8 4 W 1017,8 -
10.08.2018 02:00:00 24,8 23,7 8 4 WNW 1017,9 0,0
10.08.2018 01:00:00 24,7 23,6 9 5 WNW 1017,8 -
10.08.2018 00:00:00 24,8 23,5 5 3 W 1017,8 -
09.08.2018 23:00:00 25,5 24,0 0 0 N 1017,5 -
09.08.2018 22:00:00 25,8 24,2 4 2 SSW 1017,3 -
09.08.2018 21:00:00 26,3 24,5 0 0 N 1016,7 -

tt = temperature
td = dewpoint
ff = wind speed
dd = wind direction
ppp = reduced air pressure
rr = precipitation

Next stations